createdAt,value
2022-09-13T00:02:20.967Z,95542.66
2022-09-13T00:04:48.113Z,95534.75
2022-09-13T00:07:15.279Z,95539.00
2022-09-13T00:09:42.442Z,95550.31
2022-09-13T00:12:09.651Z,95550.66
2022-09-13T00:14:36.847Z,95546.53
2022-09-13T00:17:04.132Z,95542.53
2022-09-13T00:19:31.287Z,95539.88
2022-09-13T00:21:58.408Z,95537.31
2022-09-13T00:24:25.544Z,95543.66
2022-09-13T00:26:52.700Z,95540.69
2022-09-13T00:29:20.396Z,95531.13
2022-09-13T00:31:47.634Z,95537.91
2022-09-13T00:34:14.829Z,95536.88
2022-09-13T00:36:42.012Z,95535.19
2022-09-13T00:39:12.987Z,95536.91
2022-09-13T00:41:40.267Z,95540.09
2022-09-13T00:44:45.577Z,95552.56
2022-09-13T00:47:18.719Z,95549.00
2022-09-13T00:49:50.603Z,95553.84
2022-09-13T00:52:22.730Z,95556.97
2022-09-13T00:54:57.244Z,95575.06
2022-09-13T00:57:25.740Z,95573.09
2022-09-13T01:00:14.798Z,95569.34
2022-09-13T01:02:47.089Z,95565.88
2022-09-13T01:05:17.107Z,95570.41
2022-09-13T01:07:44.576Z,95566.28
2022-09-13T01:10:12.288Z,95562.84
2022-09-13T01:12:56.250Z,95574.81
2022-09-13T01:15:23.399Z,95569.41
2022-09-13T01:17:52.849Z,95576.94
2022-09-13T01:20:25.643Z,95569.63
2022-09-13T01:23:08.065Z,95562.50
2022-09-13T01:25:56.166Z,95563.44
2022-09-13T01:28:48.134Z,95568.91
2022-09-13T01:31:23.978Z,95567.84
2022-09-13T01:34:37.374Z,95563.63
2022-09-13T01:37:21.608Z,95565.38
2022-09-13T01:40:17.415Z,95556.53
2022-09-13T01:42:45.039Z,95549.72
2022-09-13T01:45:18.212Z,95546.75
2022-09-13T01:48:01.167Z,95539.31
2022-09-13T01:50:43.197Z,95546.75
2022-09-13T01:53:32.085Z,95548.06
2022-09-13T01:56:03.633Z,95552.06
2022-09-13T01:58:59.636Z,95551.09
2022-09-13T02:01:39.788Z,95551.19
2022-09-13T02:04:13.164Z,95558.19
2022-09-13T02:06:50.251Z,95552.09
2022-09-13T02:09:25.913Z,95548.06
2022-09-13T02:12:09.074Z,95560.25
2022-09-13T02:14:38.974Z,95566.59
2022-09-13T02:17:11.336Z,95559.84
2022-09-13T02:19:43.723Z,95566.06
2022-09-13T02:22:15.412Z,95566.28
2022-09-13T02:24:46.102Z,95562.28
2022-09-13T02:27:19.565Z,95562.81
2022-09-13T02:29:50.982Z,95571.81
2022-09-13T02:32:38.318Z,95560.50
2022-09-13T02:35:11.708Z,95554.06
2022-09-13T02:37:41.670Z,95557.19
2022-09-13T02:40:17.228Z,95547.06
2022-09-13T02:42:56.469Z,95545.84
2022-09-13T02:45:33.077Z,95538.28
2022-09-13T02:48:04.469Z,95530.31
2022-09-13T02:50:57.888Z,95521.72
2022-09-13T02:53:53.242Z,95522.81
2022-09-13T02:56:24.046Z,95510.41
2022-09-13T02:59:19.109Z,95503.75
2022-09-13T03:02:01.889Z,95492.88
2022-09-13T03:04:29.243Z,95490.75
2022-09-13T03:06:56.322Z,95491.44
2022-09-13T03:09:24.016Z,95495.41
2022-09-13T03:12:09.311Z,95497.53
2022-09-13T03:14:54.941Z,95496.53
2022-09-13T03:17:34.532Z,95496.63
2022-09-13T03:20:14.788Z,95499.00
2022-09-13T03:23:16.328Z,95496.41
2022-09-13T03:25:46.345Z,95494.75
2022-09-13T03:28:25.000Z,95505.41
2022-09-13T03:31:21.540Z,95494.53
2022-09-13T03:34:12.249Z,95507.88
2022-09-13T03:36:48.345Z,95486.00
2022-09-13T03:39:33.641Z,95498.44
2022-09-13T03:42:06.232Z,95486.53
2022-09-13T03:44:36.727Z,95490.75
2022-09-13T03:47:06.408Z,95483.88
2022-09-13T03:49:37.565Z,95476.78
2022-09-13T03:52:05.018Z,95468.13
2022-09-13T03:54:36.706Z,95472.78
2022-09-13T03:57:08.670Z,95462.34
2022-09-13T03:59:38.567Z,95467.91
2022-09-13T04:02:08.719Z,95467.13
2022-09-13T04:04:35.889Z,95475.91
2022-09-13T04:07:04.202Z,95484.91
2022-09-13T04:09:31.812Z,95482.09
2022-09-13T04:11:58.954Z,95461.28
2022-09-13T04:14:28.902Z,95448.13
2022-09-13T04:16:57.403Z,95440.81
2022-09-13T04:19:25.719Z,95454.13
2022-09-13T04:21:54.693Z,95463.38
2022-09-13T04:24:27.827Z,95473.16
2022-09-13T04:26:56.221Z,95480.06
2022-09-13T04:29:25.410Z,95485.56
2022-09-13T04:31:54.123Z,95495.25
2022-09-13T04:34:24.541Z,95501.00
2022-09-13T04:36:52.849Z,95499.63
2022-09-13T04:39:20.657Z,95503.06
2022-09-13T04:41:48.715Z,95493.00
2022-09-13T04:44:17.349Z,95495.84
2022-09-13T04:46:48.143Z,95501.41
2022-09-13T04:49:16.899Z,95504.53
2022-09-13T04:51:44.025Z,95506.13
2022-09-13T04:54:15.496Z,95502.34
2022-09-13T04:56:44.031Z,95502.13
2022-09-13T04:59:12.078Z,95503.66
2022-09-13T05:01:40.347Z,95502.88
2022-09-13T05:04:07.951Z,95498.19
2022-09-13T05:06:35.614Z,95505.84
2022-09-13T05:09:03.735Z,95508.31
2022-09-13T05:11:31.317Z,95509.44
2022-09-13T05:14:00.164Z,95500.09
2022-09-13T05:16:32.503Z,95506.78
2022-09-13T05:19:00.476Z,95509.31
2022-09-13T05:21:28.307Z,95516.44
2022-09-13T05:23:56.225Z,95517.53
2022-09-13T05:26:25.213Z,95518.00
2022-09-13T05:28:52.345Z,95506.91
2022-09-13T05:31:24.563Z,95511.38
2022-09-13T05:33:59.047Z,95516.94
2022-09-13T05:36:26.443Z,95514.28
2022-09-13T05:39:12.214Z,95514.91
2022-09-13T05:41:42.059Z,95512.25
2022-09-13T05:44:13.348Z,95508.56
2022-09-13T05:46:42.271Z,95511.03
2022-09-13T05:49:09.379Z,95518.53
2022-09-13T05:51:36.488Z,95517.69
2022-09-13T05:54:03.599Z,95524.25
2022-09-13T05:56:32.045Z,95531.59
2022-09-13T05:58:59.130Z,95520.63
2022-09-13T06:01:29.023Z,95509.13
2022-09-13T06:03:58.706Z,95523.75
2022-09-13T06:06:26.248Z,95524.00
2022-09-13T06:08:54.999Z,95528.25
2022-09-13T06:11:22.819Z,95539.25
2022-09-13T06:13:50.750Z,95539.38
2022-09-13T06:16:17.986Z,95543.41
2022-09-13T06:18:45.535Z,95537.41
2022-09-13T06:21:18.710Z,95554.31
2022-09-13T06:23:53.969Z,95565.13
2022-09-13T06:26:23.796Z,95564.91
2022-09-13T06:28:53.239Z,95564.66
2022-09-13T06:31:22.937Z,95565.31
2022-09-13T06:33:57.361Z,95550.00
2022-09-13T06:36:24.544Z,95544.44
2022-09-13T06:38:51.626Z,95539.13
2022-09-13T06:41:22.426Z,95530.63
2022-09-13T06:44:00.147Z,95521.22
2022-09-13T06:46:29.357Z,95508.56
2022-09-13T06:49:00.241Z,95500.94
2022-09-13T06:51:29.574Z,95511.94
2022-09-13T06:53:56.902Z,95509.59
2022-09-13T06:56:26.625Z,95503.38
2022-09-13T06:59:02.759Z,95491.53
2022-09-13T07:01:32.608Z,95494.03
2022-09-13T07:04:19.428Z,95488.56
2022-09-13T07:06:48.800Z,95499.75
2022-09-13T07:09:18.146Z,95491.09
2022-09-13T07:11:47.021Z,95484.56
2022-09-13T07:14:23.250Z,95479.63
2022-09-13T07:16:51.749Z,95475.03
2022-09-13T07:19:22.789Z,95469.47
2022-09-13T07:21:50.511Z,95473.06
2022-09-13T07:24:19.311Z,95482.84
2022-09-13T07:26:46.764Z,95495.38
2022-09-13T07:29:16.329Z,95497.72
2022-09-13T07:31:46.162Z,95506.19
2022-09-13T07:34:16.305Z,95510.81
2022-09-13T07:36:43.517Z,95514.56
2022-09-13T07:39:14.506Z,95507.28
2022-09-13T07:41:42.976Z,95519.59
2022-09-13T07:44:11.580Z,95525.63
2022-09-13T07:46:45.677Z,95520.81
2022-09-13T07:49:16.748Z,95528.25
2022-09-13T07:51:44.329Z,95530.13
2022-09-13T07:54:14.622Z,95535.69
2022-09-13T07:56:42.365Z,95529.81
2022-09-13T07:59:17.171Z,95525.47
2022-09-13T08:01:49.040Z,95536.63
2022-09-13T08:04:19.081Z,95547.16
2022-09-13T08:06:46.915Z,95537.84
2022-09-13T08:09:15.434Z,95532.22
2022-09-13T08:11:48.739Z,95542.16
2022-09-13T08:14:17.864Z,95535.91
2022-09-13T08:16:45.282Z,95526.94
2022-09-13T08:19:15.744Z,95527.84
2022-09-13T08:21:44.139Z,95528.81
2022-09-13T08:24:16.999Z,95515.72
2022-09-13T08:26:44.633Z,95532.06
2022-09-13T08:29:13.210Z,95524.56
2022-09-13T08:31:40.393Z,95529.13
2022-09-13T08:34:11.666Z,95534.22
2022-09-13T08:36:40.249Z,95536.81
2022-09-13T08:39:07.579Z,95549.78
2022-09-13T08:41:41.917Z,95552.09
2022-09-13T08:44:26.442Z,95548.41
2022-09-13T08:47:15.328Z,95536.63
2022-09-13T08:49:47.719Z,95557.88
2022-09-13T08:52:41.845Z,95566.41
2022-09-13T08:55:35.010Z,95570.53
2022-09-13T08:58:28.706Z,95570.88
2022-09-13T09:01:06.445Z,95568.72
2022-09-13T09:03:49.108Z,95580.41
2022-09-13T09:06:17.698Z,95570.94
2022-09-13T09:08:52.384Z,95567.25
2022-09-13T09:11:31.337Z,95568.06
2022-09-13T09:14:15.480Z,95557.91
2022-09-13T09:16:55.386Z,95570.63
2022-09-13T09:19:34.399Z,95572.16
2022-09-13T09:22:13.155Z,95576.44
2022-09-13T09:24:44.866Z,95588.00
2022-09-13T09:27:15.995Z,95587.59
2022-09-13T09:29:44.573Z,95589.00
2022-09-13T09:32:20.237Z,95595.50
2022-09-13T09:35:08.972Z,95600.94
2022-09-13T09:37:37.663Z,95608.09
2022-09-13T09:40:10.363Z,95601.44
2022-09-13T09:42:49.025Z,95611.03
2022-09-13T09:45:33.212Z,95623.78
2022-09-13T09:48:07.119Z,95620.53
2022-09-13T09:50:39.110Z,95605.84
2022-09-13T09:53:09.771Z,95605.19
2022-09-13T09:55:46.579Z,95622.50
2022-09-13T09:58:18.105Z,95630.38
2022-09-13T10:00:54.841Z,95629.63
2022-09-13T10:03:31.551Z,95631.66
2022-09-13T10:06:28.260Z,95617.09
2022-09-13T10:09:21.899Z,95586.34
2022-09-13T10:11:52.928Z,95574.84
2022-09-13T10:14:42.726Z,95585.00
2022-09-13T10:17:21.165Z,95580.03
2022-09-13T10:19:59.622Z,95569.00
2022-09-13T10:22:28.791Z,95580.00
2022-09-13T10:24:56.052Z,95587.13
2022-09-13T10:27:37.824Z,95578.75
2022-09-13T10:30:06.424Z,95584.66
2022-09-13T10:32:33.998Z,95575.97
2022-09-13T10:35:16.419Z,95553.97
2022-09-13T10:37:45.261Z,95563.41
2022-09-13T10:40:30.189Z,95557.53
2022-09-13T10:42:59.473Z,95559.34
2022-09-13T10:45:27.879Z,95546.19
2022-09-13T10:48:03.045Z,95544.38
2022-09-13T10:50:35.846Z,95538.53
2022-09-13T10:53:05.142Z,95534.19
2022-09-13T10:55:33.394Z,95531.28
2022-09-13T10:58:03.349Z,95524.94
2022-09-13T11:01:13.365Z,95520.38
2022-09-13T11:03:46.601Z,95517.34
2022-09-13T11:06:25.607Z,95527.59
2022-09-13T11:09:10.783Z,95525.84
2022-09-13T11:12:00.394Z,95527.19
2022-09-13T11:14:48.601Z,95524.25
2022-09-13T11:17:25.743Z,95517.53
2022-09-13T11:20:18.750Z,95511.16
2022-09-13T11:22:58.456Z,95511.31
2022-09-13T11:25:58.219Z,95516.25
2022-09-13T11:28:30.926Z,95513.00
2022-09-13T11:31:10.147Z,95505.72
2022-09-13T11:33:37.067Z,95497.66
2022-09-13T11:36:33.248Z,95489.34
2022-09-13T11:39:16.811Z,95480.13
2022-09-13T11:42:16.567Z,95471.72
2022-09-13T11:45:06.605Z,95489.03
2022-09-13T11:47:57.931Z,95497.69
2022-09-13T11:50:28.556Z,95498.59
2022-09-13T11:53:07.867Z,95493.41
2022-09-13T11:55:48.008Z,95490.75
2022-09-13T11:58:23.145Z,95497.44
2022-09-13T12:00:59.124Z,95494.06
2022-09-13T12:03:31.891Z,95500.41
2022-09-13T12:06:08.097Z,95492.25
2022-09-13T12:08:36.674Z,95490.59
2022-09-13T12:11:16.089Z,95483.63
2022-09-13T12:14:00.189Z,95480.19
2022-09-13T12:16:48.681Z,95475.25
2022-09-13T12:19:30.120Z,95478.66
2022-09-13T12:22:00.907Z,95465.19
2022-09-13T12:24:38.031Z,95462.22
2022-09-13T12:27:42.770Z,95465.38
2022-09-13T12:30:22.060Z,95462.16
2022-09-13T12:32:50.288Z,95465.06
2022-09-13T12:35:25.859Z,95466.31
2022-09-13T12:38:31.549Z,95466.19
2022-09-13T12:41:12.931Z,95452.53
2022-09-13T12:44:09.954Z,95448.81
2022-09-13T12:46:55.279Z,95452.00
2022-09-13T12:49:44.774Z,95446.06
2022-09-13T12:52:37.993Z,95443.41
2022-09-13T12:55:45.977Z,95446.25
2022-09-13T12:58:46.494Z,95454.66
2022-09-13T13:01:22.770Z,95450.88
2022-09-13T13:03:54.491Z,95450.72
2022-09-13T13:06:38.266Z,95446.75
2022-09-13T13:09:28.742Z,95451.00
2022-09-13T13:11:58.355Z,95442.78
2022-09-13T13:14:29.354Z,95449.16
2022-09-13T13:17:34.679Z,95439.28
2022-09-13T13:20:39.211Z,95443.84
2022-09-13T13:23:27.639Z,95445.38
2022-09-13T13:25:57.958Z,95440.50
2022-09-13T13:28:43.032Z,95434.25
2022-09-13T13:31:21.950Z,95437.41
2022-09-13T13:33:52.014Z,95432.63
2022-09-13T13:36:24.545Z,95427.28
2022-09-13T13:38:53.651Z,95426.47
2022-09-13T13:41:32.841Z,95419.91
2022-09-13T13:44:01.142Z,95417.75
2022-09-13T13:46:32.175Z,95407.31
2022-09-13T13:49:31.250Z,95416.22
2022-09-13T13:52:10.668Z,95408.78
2022-09-13T13:54:50.318Z,95409.66
2022-09-13T13:57:34.062Z,95408.06
2022-09-13T14:00:19.238Z,95396.72
2022-09-13T14:03:10.044Z,95394.75
2022-09-13T14:06:09.080Z,95401.53
2022-09-13T14:08:43.057Z,95389.13
2022-09-13T14:11:44.200Z,95396.13
2022-09-13T14:14:43.677Z,95401.53
2022-09-13T14:17:41.533Z,95391.16
2022-09-13T14:20:16.861Z,95386.00
2022-09-13T14:22:43.957Z,95384.63
2022-09-13T14:25:23.513Z,95372.28
2022-09-13T14:27:58.907Z,95381.81
2022-09-13T14:30:35.368Z,95378.44
2022-09-13T14:33:05.216Z,95377.69
2022-09-13T14:35:35.693Z,95377.09
2022-09-13T14:38:30.875Z,95374.31
2022-09-13T14:41:01.489Z,95376.13
2022-09-13T14:43:30.544Z,95373.41
2022-09-13T14:46:06.823Z,95366.34
2022-09-13T14:48:48.009Z,95371.47
2022-09-13T14:51:26.545Z,95373.91
2022-09-13T14:54:19.793Z,95359.31
2022-09-13T14:56:52.437Z,95361.56
2022-09-13T14:59:43.319Z,95367.13
2022-09-13T15:02:20.664Z,95363.16
2022-09-13T15:04:52.094Z,95376.97
2022-09-13T15:07:35.096Z,95378.84
2022-09-13T15:10:20.866Z,95371.59
2022-09-13T15:12:53.943Z,95369.03
2022-09-13T15:15:35.241Z,95371.84
2022-09-13T15:18:06.134Z,95375.13
2022-09-13T15:20:56.371Z,95370.44
2022-09-13T15:23:28.362Z,95364.03
2022-09-13T15:26:04.450Z,95370.34
2022-09-13T15:28:34.769Z,95370.78
2022-09-13T15:31:02.556Z,95371.31
2022-09-13T15:33:31.995Z,95362.25
2022-09-13T15:36:17.983Z,95364.47
2022-09-13T15:39:02.425Z,95371.66
2022-09-13T15:41:35.444Z,95367.38
2022-09-13T15:44:04.662Z,95371.44
2022-09-13T15:46:34.693Z,95372.19
2022-09-13T15:49:04.227Z,95371.91
2022-09-13T15:51:35.534Z,95377.34
2022-09-13T15:54:12.919Z,95369.63
2022-09-13T15:56:43.385Z,95373.53
2022-09-13T15:59:21.290Z,95365.78
2022-09-13T16:01:50.699Z,95363.72
2022-09-13T16:04:18.631Z,95361.88
2022-09-13T16:06:46.552Z,95361.09
2022-09-13T16:09:24.599Z,95357.31
2022-09-13T16:11:52.112Z,95358.63
2022-09-13T16:14:22.200Z,95347.38
2022-09-13T16:16:49.766Z,95348.81
2022-09-13T16:19:20.111Z,95350.38
2022-09-13T16:21:49.039Z,95352.56
2022-09-13T16:24:16.931Z,95352.81
2022-09-13T16:26:44.226Z,95345.97
2022-09-13T16:29:12.541Z,95349.84
2022-09-13T16:31:39.963Z,95349.41
2022-09-13T16:34:07.279Z,95340.44
2022-09-13T16:36:34.393Z,95347.44
2022-09-13T16:39:01.553Z,95333.78
2022-09-13T16:41:28.751Z,95327.13
2022-09-13T16:43:57.054Z,95332.72
2022-09-13T16:46:24.192Z,95328.75
2022-09-13T16:48:55.588Z,95327.59
2022-09-13T16:51:24.002Z,95323.31
2022-09-13T16:53:52.110Z,95335.53
2022-09-13T16:56:22.091Z,95326.66
2022-09-13T16:58:50.496Z,95333.25
2022-09-13T17:01:23.305Z,95329.41
2022-09-13T17:03:54.575Z,95334.03
2022-09-13T17:06:23.733Z,95332.50
2022-09-13T17:08:56.962Z,95336.84
2022-09-13T17:11:26.378Z,95344.94
2022-09-13T17:13:54.307Z,95336.91
2022-09-13T17:16:41.313Z,95336.34
2022-09-13T17:19:13.742Z,95333.28
2022-09-13T17:21:40.907Z,95337.53
2022-09-13T17:24:13.259Z,95329.72
2022-09-13T17:26:46.575Z,95331.25
2022-09-13T17:29:14.701Z,95330.47
2022-09-13T17:31:43.265Z,95323.94
2022-09-13T17:34:11.445Z,95322.88
2022-09-13T17:36:39.617Z,95324.13
2022-09-13T17:39:07.091Z,95323.25
2022-09-13T17:41:34.200Z,95314.75
2022-09-13T17:44:01.384Z,95323.25
2022-09-13T17:46:30.183Z,95325.16
2022-09-13T17:48:59.161Z,95326.81
2022-09-13T17:51:29.253Z,95321.84
2022-09-13T17:54:00.078Z,95327.44
2022-09-13T17:56:29.538Z,95330.59
2022-09-13T17:59:05.832Z,95334.72
2022-09-13T18:01:38.206Z,95345.53
2022-09-13T18:04:06.084Z,95339.75
2022-09-13T18:06:33.441Z,95335.31
2022-09-13T18:09:00.502Z,95334.72
2022-09-13T18:11:27.577Z,95349.38
2022-09-13T18:13:54.744Z,95355.34
2022-09-13T18:16:25.001Z,95362.56
2022-09-13T18:18:53.506Z,95351.75
2022-09-13T18:21:23.187Z,95356.63
2022-09-13T18:23:52.756Z,95353.84
2022-09-13T18:26:22.197Z,95345.69
2022-09-13T18:29:04.081Z,95343.56
2022-09-13T18:31:32.902Z,95342.28
2022-09-13T18:34:02.674Z,95339.88
2022-09-13T18:36:31.864Z,95346.69
2022-09-13T18:38:59.020Z,95354.66
2022-09-13T18:41:29.617Z,95352.78
2022-09-13T18:43:57.013Z,95353.44
2022-09-13T18:46:26.983Z,95356.69
2022-09-13T18:48:57.653Z,95366.44
2022-09-13T18:51:29.143Z,95354.97
2022-09-13T18:53:58.195Z,95349.97
2022-09-13T18:56:26.122Z,95346.50
2022-09-13T18:58:54.587Z,95349.63
2022-09-13T19:01:24.574Z,95350.44
2022-09-13T19:03:58.096Z,95350.13
2022-09-13T19:06:31.741Z,95342.72
2022-09-13T19:09:00.474Z,95344.97
2022-09-13T19:11:48.964Z,95336.28
2022-09-13T19:14:23.199Z,95351.59
2022-09-13T19:16:52.284Z,95354.88
2022-09-13T19:19:19.824Z,95345.91
2022-09-13T19:21:47.267Z,95345.84
2022-09-13T19:24:19.325Z,95335.03
2022-09-13T19:26:51.321Z,95332.88
2022-09-13T19:29:21.838Z,95323.59
2022-09-13T19:31:50.809Z,95338.47
2022-09-13T19:34:19.881Z,95335.03
2022-09-13T19:36:49.648Z,95332.84
2022-09-13T19:39:17.094Z,95339.66
2022-09-13T19:41:44.565Z,95334.22
2022-09-13T19:44:13.059Z,95336.41
2022-09-13T19:46:41.871Z,95330.78
2022-09-13T19:49:13.776Z,95327.03
2022-09-13T19:51:42.736Z,95334.16
2022-09-13T19:54:12.603Z,95335.03
2022-09-13T19:56:43.387Z,95333.13
2022-09-13T19:59:13.449Z,95331.44
2022-09-13T20:01:44.144Z,95329.94
2022-09-13T20:04:14.833Z,95343.72
2022-09-13T20:06:46.201Z,95317.53
2022-09-13T20:09:15.673Z,95317.19
2022-09-13T20:11:47.478Z,95312.69
2022-09-13T20:14:18.065Z,95311.00
2022-09-13T20:16:46.312Z,95308.06
2022-09-13T20:19:39.723Z,95304.19
2022-09-13T20:22:07.659Z,95301.72
2022-09-13T20:24:35.038Z,95309.19
2022-09-13T20:27:02.244Z,95307.91
2022-09-13T20:29:29.362Z,95302.34
2022-09-13T20:31:56.475Z,95301.91
2022-09-13T20:34:23.502Z,95303.88
2022-09-13T20:36:50.601Z,95298.59
2022-09-13T20:39:17.849Z,95291.13
2022-09-13T20:41:45.115Z,95282.09
2022-09-13T20:44:12.275Z,95287.34
2022-09-13T20:46:40.398Z,95279.16
2022-09-13T20:49:09.084Z,95276.38
2022-09-13T20:51:37.191Z,95271.75
2022-09-13T20:54:05.208Z,95269.91
2022-09-13T20:56:34.102Z,95259.47
2022-09-13T20:59:01.852Z,95259.31
2022-09-13T21:01:31.202Z,95264.09
2022-09-13T21:03:59.491Z,95265.44
2022-09-13T21:06:29.363Z,95265.78
2022-09-13T21:08:59.787Z,95256.19
2022-09-13T21:11:32.720Z,95251.13
2022-09-13T21:14:02.713Z,95245.88
2022-09-13T21:16:41.222Z,95240.13
2022-09-13T21:19:09.144Z,95235.31
2022-09-13T21:21:39.888Z,95233.03
2022-09-13T21:24:09.661Z,95218.78
2022-09-13T21:26:41.951Z,95215.06
2022-09-13T21:29:10.504Z,95218.16
2022-09-13T21:31:38.547Z,95210.09
2022-09-13T21:34:08.423Z,95215.22
2022-09-13T21:36:35.868Z,95214.19
2022-09-13T21:39:04.475Z,95208.44
2022-09-13T21:41:32.015Z,95204.25
2022-09-13T21:43:59.151Z,95193.31
2022-09-13T21:46:28.374Z,95173.66
2022-09-13T21:48:59.450Z,95182.81
2022-09-13T21:51:29.075Z,95180.47
2022-09-13T21:53:59.243Z,95185.69
2022-09-13T21:56:28.944Z,95190.19
2022-09-13T21:59:00.894Z,95190.66
2022-09-13T22:01:31.214Z,95187.25
2022-09-13T22:03:59.171Z,95197.19
2022-09-13T22:06:30.274Z,95186.34
2022-09-13T22:09:06.558Z,95194.41
2022-09-13T22:11:38.501Z,95190.97
2022-09-13T22:14:07.296Z,95183.25
2022-09-13T22:16:37.084Z,95173.66
2022-09-13T22:19:20.171Z,95171.03
2022-09-13T22:21:50.258Z,95168.69
2022-09-13T22:24:20.652Z,95162.50
2022-09-13T22:26:49.722Z,95158.19
2022-09-13T22:29:17.244Z,95153.22
2022-09-13T22:31:46.126Z,95156.44
2022-09-13T22:34:15.922Z,95134.91
2022-09-13T22:36:43.106Z,95147.03
2022-09-13T22:39:15.199Z,95156.94
2022-09-13T22:41:43.089Z,95144.91
2022-09-13T22:44:10.221Z,95145.97
2022-09-13T22:46:40.386Z,95157.53
2022-09-13T22:49:07.922Z,95163.44
2022-09-13T22:51:34.961Z,95164.97
2022-09-13T22:54:06.865Z,95161.19
2022-09-13T22:56:36.348Z,95158.13
2022-09-13T22:59:09.375Z,95159.16
2022-09-13T23:01:37.913Z,95156.59
2022-09-13T23:04:05.312Z,95156.63
2022-09-13T23:06:33.239Z,95151.38
2022-09-13T23:09:01.927Z,95153.66
2022-09-13T23:11:39.599Z,95158.44
2022-09-13T23:14:10.021Z,95174.41
2022-09-13T23:16:45.488Z,95169.47
2022-09-13T23:19:13.604Z,95170.25
2022-09-13T23:21:41.539Z,95182.28
2022-09-13T23:24:12.980Z,95206.75
2022-09-13T23:26:40.320Z,95214.63
2022-09-13T23:29:07.381Z,95222.19
2022-09-13T23:31:38.742Z,95219.25
2022-09-13T23:34:07.777Z,95219.16
2022-09-13T23:36:37.734Z,95213.53
2022-09-13T23:39:07.892Z,95217.91
2022-09-13T23:41:35.386Z,95209.53
2022-09-13T23:44:03.617Z,95212.31
2022-09-13T23:46:31.130Z,95220.06
2022-09-13T23:48:58.197Z,95212.97
2022-09-13T23:51:26.936Z,95215.47
2022-09-13T23:54:00.457Z,95217.59
2022-09-13T23:56:30.420Z,95193.44
2022-09-13T23:58:59.061Z,95191.91
